Terminal Aerodrome Forecast
Issued by NWS Austin/San Antonio, TX

Home | Current Version | Previous Version | Text Only | Print | Product List | Glossary On
Versions: 1 2 3 4 5 6 7 8 9 10 11 12 13 14 15 16 17
000
FTUS44 KEWX 011100
TAFDRT
TAF
KDRT 011139Z 0112/0212 15003KT 4SM BR BKN012 OVC020
     FM011800 14005KT P6SM OVC015
     FM020200 10009KT P6SM OVC007
     FM020600 09006KT 6SM BR OVC003=

USA.gov is the U.S. government's official web portal to all federal, state and local government web resources and services.